createdAt,value
2023-02-02T00:01:58.003Z,2.30
2023-02-02T00:04:27.822Z,2.47
2023-02-02T00:06:57.258Z,2.20
2023-02-02T00:09:25.145Z,2.63
2023-02-02T00:11:53.469Z,2.97
2023-02-02T00:14:21.631Z,2.88
2023-02-02T00:17:05.598Z,2.85
2023-02-02T00:19:32.655Z,2.10
2023-02-02T00:22:05.486Z,2.33
2023-02-02T00:24:32.400Z,2.83
2023-02-02T00:27:00.401Z,3.28
2023-02-02T00:29:29.931Z,2.75
2023-02-02T00:31:57.003Z,2.67
2023-02-02T00:34:29.745Z,2.28
2023-02-02T00:36:57.007Z,3.33
2023-02-02T00:39:28.239Z,2.83
2023-02-02T00:42:03.516Z,2.42
2023-02-02T00:44:50.687Z,2.45
2023-02-02T00:47:18.171Z,2.47
2023-02-02T00:49:44.895Z,3.25
2023-02-02T00:52:12.080Z,2.65
2023-02-02T00:54:38.845Z,2.15
2023-02-02T00:57:09.791Z,2.83
2023-02-02T00:59:36.782Z,2.53
2023-02-02T01:02:04.347Z,2.33
2023-02-02T01:04:31.663Z,2.05
2023-02-02T01:06:59.140Z,3.40
2023-02-02T01:09:28.716Z,3.00
2023-02-02T01:11:58.481Z,3.10
2023-02-02T01:14:32.284Z,2.35
2023-02-02T01:16:59.375Z,2.28
2023-02-02T01:19:37.216Z,4.35
2023-02-02T01:22:05.716Z,2.58
2023-02-02T01:24:32.825Z,2.38
2023-02-02T01:27:03.368Z,2.95
2023-02-02T01:29:33.909Z,2.25
2023-02-02T01:32:01.555Z,2.20
2023-02-02T01:34:28.346Z,2.30
2023-02-02T01:36:55.533Z,2.33
2023-02-02T01:39:22.818Z,3.10
2023-02-02T01:41:57.166Z,2.13
2023-02-02T01:44:51.843Z,1.85
2023-02-02T01:47:27.999Z,1.95
2023-02-02T01:49:56.662Z,1.75
2023-02-02T01:52:33.909Z,2.90
2023-02-02T01:55:11.351Z,2.40
2023-02-02T01:57:47.066Z,1.60
2023-02-02T02:00:25.102Z,2.00
2023-02-02T02:02:56.847Z,1.95
2023-02-02T02:05:29.431Z,2.47
2023-02-02T02:08:07.741Z,3.28
2023-02-02T02:10:35.202Z,2.35
2023-02-02T02:13:02.397Z,2.22
2023-02-02T02:15:49.778Z,2.65
2023-02-02T02:18:35.765Z,2.42
2023-02-02T02:21:42.201Z,2.55
2023-02-02T02:24:46.049Z,3.03
2023-02-02T02:27:54.792Z,2.67
2023-02-02T02:30:39.116Z,2.38
2023-02-02T02:33:26.435Z,3.00
2023-02-02T02:36:04.544Z,2.38
2023-02-02T02:39:00.161Z,3.42
2023-02-02T02:41:32.552Z,2.20
2023-02-02T02:44:07.191Z,2.13
2023-02-02T02:46:34.726Z,2.63
2023-02-02T02:49:02.122Z,2.50
2023-02-02T02:51:49.323Z,2.15
2023-02-02T02:54:20.041Z,2.08
2023-02-02T02:57:02.335Z,2.50
2023-02-02T02:59:48.161Z,1.95
2023-02-02T03:02:40.997Z,2.15
2023-02-02T03:05:33.493Z,1.48
2023-02-02T03:08:23.053Z,2.30
2023-02-02T03:10:49.925Z,1.40
2023-02-02T03:13:19.069Z,2.47
2023-02-02T03:15:46.506Z,2.15
2023-02-02T03:18:15.190Z,1.65
2023-02-02T03:20:43.768Z,2.22
2023-02-02T03:23:10.947Z,2.00
2023-02-02T03:25:45.139Z,2.08
2023-02-02T03:28:17.916Z,1.90
2023-02-02T03:30:45.637Z,1.58
2023-02-02T03:33:16.151Z,1.95
2023-02-02T03:35:45.693Z,1.45
2023-02-02T03:38:15.444Z,1.38
2023-02-02T03:40:45.571Z,1.30
2023-02-02T03:43:12.486Z,1.58
2023-02-02T03:45:48.111Z,1.90
2023-02-02T03:48:20.307Z,2.50
2023-02-02T03:50:50.115Z,1.90
2023-02-02T03:53:16.968Z,1.63
2023-02-02T03:55:43.910Z,1.80
2023-02-02T03:58:15.578Z,1.70
2023-02-02T04:00:42.833Z,0.88
2023-02-02T04:03:11.043Z,1.30
2023-02-02T04:05:46.055Z,1.30
2023-02-02T04:08:15.859Z,1.48
2023-02-02T04:10:42.890Z,1.48
2023-02-02T04:13:10.039Z,0.95
2023-02-02T04:15:37.315Z,1.10
2023-02-02T04:18:07.404Z,0.77
2023-02-02T04:20:34.464Z,1.42
2023-02-02T04:23:04.283Z,1.60
2023-02-02T04:25:34.389Z,2.05
2023-02-02T04:28:03.507Z,1.55
2023-02-02T04:30:35.509Z,1.45
2023-02-02T04:33:09.986Z,2.35
2023-02-02T04:35:36.899Z,2.25
2023-02-02T04:38:05.168Z,1.48
2023-02-02T04:40:35.123Z,1.30
2023-02-02T04:43:04.498Z,2.13
2023-02-02T04:45:37.559Z,1.40
2023-02-02T04:48:05.155Z,1.38
2023-02-02T04:50:31.913Z,1.35
2023-02-02T04:52:59.046Z,1.25
2023-02-02T04:55:26.473Z,2.10
2023-02-02T04:57:53.472Z,1.80
2023-02-02T05:00:21.489Z,2.05
2023-02-02T05:02:51.013Z,1.90
2023-02-02T05:05:21.329Z,1.63
2023-02-02T05:07:48.505Z,1.33
2023-02-02T05:10:16.457Z,1.20
2023-02-02T05:12:43.341Z,1.58
2023-02-02T05:15:11.139Z,1.90
2023-02-02T05:17:40.877Z,1.33
2023-02-02T05:20:08.538Z,1.42
2023-02-02T05:22:38.422Z,1.45
2023-02-02T05:25:06.856Z,1.73
2023-02-02T05:27:33.795Z,2.60
2023-02-02T05:30:03.077Z,1.40
2023-02-02T05:32:30.223Z,1.52
2023-02-02T05:35:02.033Z,1.63
2023-02-02T05:37:29.152Z,1.90
2023-02-02T05:39:56.092Z,1.48
2023-02-02T05:42:23.174Z,2.05
2023-02-02T05:44:57.389Z,1.63
2023-02-02T05:47:27.292Z,1.50
2023-02-02T05:50:01.119Z,1.40
2023-02-02T05:52:34.023Z,1.70
2023-02-02T05:55:04.182Z,1.45
2023-02-02T05:57:31.136Z,1.65
2023-02-02T05:59:58.066Z,1.90
2023-02-02T06:02:26.245Z,1.50
2023-02-02T06:04:55.981Z,1.80
2023-02-02T06:07:22.922Z,1.55
2023-02-02T06:09:49.783Z,2.22
2023-02-02T06:12:16.909Z,1.55
2023-02-02T06:14:47.017Z,1.75
2023-02-02T06:17:13.812Z,1.90
2023-02-02T06:19:40.547Z,2.13
2023-02-02T06:22:07.662Z,1.50
2023-02-02T06:24:34.687Z,1.52
2023-02-02T06:27:01.737Z,1.35
2023-02-02T06:29:29.253Z,1.63
2023-02-02T06:31:56.348Z,1.60
2023-02-02T06:34:23.401Z,1.98
2023-02-02T06:36:52.910Z,1.30
2023-02-02T06:39:19.699Z,1.58
2023-02-02T06:41:48.896Z,1.63
2023-02-02T06:44:15.975Z,1.52
2023-02-02T06:46:43.441Z,1.67
2023-02-02T06:49:10.410Z,1.27
2023-02-02T06:51:37.750Z,2.65
2023-02-02T06:54:05.095Z,1.17
2023-02-02T06:56:32.185Z,1.85
2023-02-02T06:58:58.887Z,1.15
2023-02-02T07:01:28.738Z,1.77
2023-02-02T07:04:00.874Z,1.33
2023-02-02T07:06:31.751Z,1.95
2023-02-02T07:09:02.894Z,1.52
2023-02-02T07:11:45.324Z,1.52
2023-02-02T07:14:14.785Z,1.30
2023-02-02T07:16:42.126Z,1.40
2023-02-02T07:19:09.588Z,1.30
2023-02-02T07:21:36.829Z,1.52
2023-02-02T07:24:04.768Z,1.88
2023-02-02T07:26:34.672Z,1.48
2023-02-02T07:29:01.579Z,1.55
2023-02-02T07:31:29.599Z,2.20
2023-02-02T07:33:56.598Z,2.40
2023-02-02T07:36:28.116Z,1.70
2023-02-02T07:38:58.478Z,1.90
2023-02-02T07:41:25.870Z,1.52
2023-02-02T07:43:52.846Z,1.80
2023-02-02T07:46:22.801Z,1.98
2023-02-02T07:49:00.874Z,1.85
2023-02-02T07:51:30.077Z,1.90
2023-02-02T07:54:00.629Z,1.65
2023-02-02T07:56:28.689Z,2.22
2023-02-02T07:58:56.594Z,2.00
2023-02-02T08:01:27.927Z,1.40
2023-02-02T08:03:56.201Z,2.00
2023-02-02T08:06:32.418Z,1.77
2023-02-02T08:09:00.258Z,1.90
2023-02-02T08:11:34.150Z,1.90
2023-02-02T08:14:04.599Z,1.77
2023-02-02T08:16:32.635Z,1.65
2023-02-02T08:19:02.683Z,2.05
2023-02-02T08:21:33.510Z,2.92
2023-02-02T08:24:00.712Z,2.25
2023-02-02T08:26:33.029Z,1.85
2023-02-02T08:29:07.249Z,2.30
2023-02-02T08:31:52.245Z,2.60
2023-02-02T08:34:19.726Z,1.60
2023-02-02T08:36:49.233Z,2.10
2023-02-02T08:39:16.478Z,1.77
2023-02-02T08:41:43.323Z,1.90
2023-02-02T08:44:14.290Z,1.80
2023-02-02T08:46:42.433Z,1.55
2023-02-02T08:49:13.549Z,1.67
2023-02-02T08:51:40.940Z,1.80
2023-02-02T08:54:08.148Z,2.00
2023-02-02T08:56:35.190Z,1.50
2023-02-02T08:59:05.070Z,1.40
2023-02-02T09:01:33.548Z,1.70
2023-02-02T09:04:09.064Z,1.35
2023-02-02T09:06:38.601Z,1.98
2023-02-02T09:09:07.335Z,1.52
2023-02-02T09:11:34.923Z,1.60
2023-02-02T09:14:05.207Z,2.55
2023-02-02T09:16:33.274Z,0.95
2023-02-02T09:19:00.371Z,1.60
2023-02-02T09:21:27.488Z,1.38
2023-02-02T09:23:54.759Z,1.13
2023-02-02T09:26:27.480Z,1.77
2023-02-02T09:29:03.215Z,1.10
2023-02-02T09:31:33.587Z,1.23
2023-02-02T09:34:05.430Z,1.58
2023-02-02T09:36:32.891Z,1.45
2023-02-02T09:38:59.806Z,1.50
2023-02-02T09:41:38.684Z,1.50
2023-02-02T09:44:39.524Z,1.60
2023-02-02T09:47:17.830Z,1.17
2023-02-02T09:50:08.993Z,1.58
2023-02-02T09:52:44.885Z,1.77
2023-02-02T09:55:41.741Z,1.30
2023-02-02T09:58:15.616Z,1.70
2023-02-02T10:00:55.632Z,1.77
2023-02-02T10:03:35.827Z,2.72
2023-02-02T10:06:39.558Z,1.45
2023-02-02T10:09:27.255Z,1.20
2023-02-02T10:12:02.269Z,1.67
2023-02-02T10:14:52.664Z,1.00
2023-02-02T10:17:42.338Z,1.40
2023-02-02T10:20:18.641Z,1.40
2023-02-02T10:22:47.034Z,1.52
2023-02-02T10:25:15.400Z,1.13
2023-02-02T10:27:49.561Z,1.58
2023-02-02T10:30:20.166Z,1.13
2023-02-02T10:33:20.146Z,1.33
2023-02-02T10:36:18.563Z,0.90
2023-02-02T10:38:56.450Z,1.50
2023-02-02T10:41:37.355Z,1.45
2023-02-02T10:44:39.447Z,1.27
2023-02-02T10:47:10.929Z,1.63
2023-02-02T10:49:39.210Z,1.85
2023-02-02T10:52:11.777Z,1.50
2023-02-02T10:54:57.830Z,1.45
2023-02-02T10:57:54.142Z,1.33
2023-02-02T11:00:48.055Z,1.15
2023-02-02T11:03:16.509Z,1.05
2023-02-02T11:06:02.114Z,0.85
2023-02-02T11:08:38.991Z,1.30
2023-02-02T11:11:33.352Z,1.27
2023-02-02T11:14:08.918Z,1.50
2023-02-02T11:16:43.036Z,1.38
2023-02-02T11:19:19.862Z,1.27
2023-02-02T11:21:52.677Z,1.73
2023-02-02T11:24:50.472Z,0.70
2023-02-02T11:27:23.456Z,1.50
2023-02-02T11:29:53.610Z,1.38
2023-02-02T11:32:31.876Z,2.00
2023-02-02T11:35:04.918Z,1.23
2023-02-02T11:37:33.252Z,1.15
2023-02-02T11:40:39.613Z,1.48
2023-02-02T11:43:18.085Z,1.27
2023-02-02T11:45:46.127Z,1.40
2023-02-02T11:48:19.843Z,1.27
2023-02-02T11:51:00.155Z,1.35
2023-02-02T11:53:51.327Z,1.17
2023-02-02T11:56:20.222Z,1.20
2023-02-02T11:58:53.014Z,1.25
2023-02-02T12:01:45.174Z,0.95
2023-02-02T12:04:18.856Z,1.40
2023-02-02T12:06:46.234Z,0.82
2023-02-02T12:09:16.668Z,1.08
2023-02-02T12:12:02.575Z,1.02
2023-02-02T12:14:37.716Z,1.73
2023-02-02T12:17:05.159Z,1.27
2023-02-02T12:20:03.228Z,1.30
2023-02-02T12:22:56.931Z,0.75
2023-02-02T12:25:57.027Z,0.95
2023-02-02T12:28:39.439Z,0.70
2023-02-02T12:31:18.734Z,1.25
2023-02-02T12:34:11.769Z,1.10
2023-02-02T12:36:41.878Z,1.10
2023-02-02T12:39:48.547Z,1.10
2023-02-02T12:42:21.342Z,1.10
2023-02-02T12:45:15.822Z,1.30
2023-02-02T12:48:09.564Z,1.50
2023-02-02T12:51:02.281Z,1.33
2023-02-02T12:53:39.353Z,1.00
2023-02-02T12:56:35.361Z,1.65
2023-02-02T12:59:07.214Z,1.13
2023-02-02T13:01:59.738Z,1.70
2023-02-02T13:04:49.246Z,0.95
2023-02-02T13:07:25.030Z,1.20
2023-02-02T13:10:04.384Z,1.27
2023-02-02T13:12:34.857Z,1.10
2023-02-02T13:15:08.182Z,1.15
2023-02-02T13:17:41.209Z,1.05
2023-02-02T13:20:19.306Z,1.33
2023-02-02T13:22:49.716Z,1.25
2023-02-02T13:25:29.249Z,1.60
2023-02-02T13:27:57.398Z,1.77
2023-02-02T13:30:34.519Z,0.90
2023-02-02T13:33:06.320Z,1.13
2023-02-02T13:35:52.791Z,0.98
2023-02-02T13:38:30.738Z,1.10
2023-02-02T13:41:00.465Z,1.30
2023-02-02T13:43:48.677Z,0.93
2023-02-02T13:46:21.590Z,2.88
2023-02-02T13:48:56.294Z,1.08
2023-02-02T13:52:00.665Z,1.02
2023-02-02T13:54:33.333Z,1.00
2023-02-02T13:57:15.364Z,1.10
2023-02-02T13:59:46.975Z,0.90
2023-02-02T14:02:29.976Z,1.38
2023-02-02T14:05:01.927Z,0.98
2023-02-02T14:07:43.427Z,1.52
2023-02-02T14:10:24.309Z,1.15
2023-02-02T14:12:51.667Z,1.23
2023-02-02T14:15:18.807Z,1.05
2023-02-02T14:17:47.455Z,0.80
2023-02-02T14:20:42.082Z,1.08
2023-02-02T14:23:51.610Z,1.58
2023-02-02T14:26:42.399Z,1.20
2023-02-02T14:29:29.647Z,1.15
2023-02-02T14:31:59.249Z,0.90
2023-02-02T14:34:35.384Z,1.13
2023-02-02T14:37:28.786Z,1.30
2023-02-02T14:40:07.653Z,0.95
2023-02-02T14:43:28.972Z,0.93
2023-02-02T14:46:07.931Z,1.17
2023-02-02T14:48:35.134Z,0.80
2023-02-02T14:51:17.732Z,1.10
2023-02-02T14:54:30.389Z,3.00
2023-02-02T14:57:10.444Z,2.70
2023-02-02T14:59:42.809Z,1.30
2023-02-02T15:02:22.397Z,1.20
2023-02-02T15:04:50.482Z,1.13
2023-02-02T15:07:26.576Z,0.90
2023-02-02T15:09:56.811Z,1.13
2023-02-02T15:12:46.697Z,0.98
2023-02-02T15:15:24.293Z,1.10
2023-02-02T15:18:08.289Z,1.00
2023-02-02T15:20:40.335Z,1.75
2023-02-02T15:23:29.380Z,1.08
2023-02-02T15:26:26.891Z,1.73
2023-02-02T15:28:56.364Z,0.90
2023-02-02T15:31:28.713Z,1.15
2023-02-02T15:34:13.115Z,0.98
2023-02-02T15:36:41.807Z,1.40
2023-02-02T15:39:27.718Z,0.70
2023-02-02T15:42:17.119Z,1.05
2023-02-02T15:44:44.252Z,1.15
2023-02-02T15:47:16.997Z,0.80
2023-02-02T15:49:44.223Z,0.95
2023-02-02T15:52:17.416Z,1.40
2023-02-02T15:54:56.473Z,0.80
2023-02-02T15:57:35.135Z,0.75
2023-02-02T16:00:28.372Z,0.90
2023-02-02T16:03:06.328Z,1.20
2023-02-02T16:05:36.228Z,0.80
2023-02-02T16:08:07.294Z,1.02
2023-02-02T16:10:35.486Z,0.80
2023-02-02T16:13:02.829Z,0.82
2023-02-02T16:15:32.159Z,1.35
2023-02-02T16:18:02.384Z,1.10
2023-02-02T16:20:33.732Z,1.00
2023-02-02T16:23:06.256Z,0.70
2023-02-02T16:25:36.697Z,0.65
2023-02-02T16:28:03.742Z,1.00
2023-02-02T16:30:38.883Z,0.70
2023-02-02T16:33:30.536Z,0.70
2023-02-02T16:36:00.440Z,0.82
2023-02-02T16:38:34.048Z,0.90
2023-02-02T16:41:07.016Z,0.65
2023-02-02T16:43:34.547Z,0.88
2023-02-02T16:46:09.033Z,1.30
2023-02-02T16:48:38.227Z,0.73
2023-02-02T16:51:17.367Z,1.17
2023-02-02T16:53:47.028Z,1.05
2023-02-02T16:56:36.865Z,1.23
2023-02-02T16:59:26.275Z,0.77
2023-02-02T17:01:56.387Z,1.00
2023-02-02T17:04:30.746Z,0.68
2023-02-02T17:07:16.140Z,0.77
2023-02-02T17:09:44.979Z,0.82
2023-02-02T17:12:34.858Z,1.58
2023-02-02T17:15:26.474Z,0.70
2023-02-02T17:17:57.037Z,1.02
2023-02-02T17:20:24.417Z,0.80
2023-02-02T17:22:56.579Z,1.10
2023-02-02T17:25:49.170Z,1.02
2023-02-02T17:28:30.605Z,1.45
2023-02-02T17:31:03.209Z,1.10
2023-02-02T17:33:35.031Z,1.08
2023-02-02T17:36:02.392Z,1.15
2023-02-02T17:38:29.631Z,0.77
2023-02-02T17:41:01.075Z,1.10
2023-02-02T17:43:29.601Z,1.00
2023-02-02T17:45:56.558Z,1.05
2023-02-02T17:48:23.496Z,1.33
2023-02-02T17:50:50.941Z,1.30
2023-02-02T17:53:21.956Z,1.13
2023-02-02T17:55:50.436Z,1.05
2023-02-02T17:58:18.500Z,1.15
2023-02-02T18:00:54.889Z,1.52
2023-02-02T18:03:24.426Z,1.60
2023-02-02T18:05:51.752Z,1.42
2023-02-02T18:08:18.747Z,1.30
2023-02-02T18:10:45.735Z,1.45
2023-02-02T18:13:19.565Z,1.45
2023-02-02T18:15:47.038Z,1.30
2023-02-02T18:18:15.929Z,1.40
2023-02-02T18:20:47.624Z,1.23
2023-02-02T18:23:16.577Z,1.27
2023-02-02T18:25:43.769Z,1.40
2023-02-02T18:28:17.808Z,1.38
2023-02-02T18:30:46.321Z,2.65
2023-02-02T18:33:13.813Z,3.30
2023-02-02T18:35:44.741Z,2.90
2023-02-02T18:38:13.293Z,2.63
2023-02-02T18:40:40.575Z,3.22
2023-02-02T18:43:07.526Z,2.25
2023-02-02T18:45:34.672Z,2.80
2023-02-02T18:48:03.400Z,3.28
2023-02-02T18:50:30.238Z,2.47
2023-02-02T18:52:57.305Z,2.65
2023-02-02T18:55:25.260Z,1.95
2023-02-02T18:57:52.849Z,2.17
2023-02-02T19:00:20.254Z,3.03
2023-02-02T19:02:47.313Z,2.50
2023-02-02T19:05:32.659Z,2.30
2023-02-02T19:07:59.850Z,1.83
2023-02-02T19:10:27.822Z,2.53
2023-02-02T19:13:03.882Z,2.00
2023-02-02T19:15:35.509Z,1.98
2023-02-02T19:18:02.716Z,2.67
2023-02-02T19:20:33.822Z,2.55
2023-02-02T19:23:07.730Z,2.60
2023-02-02T19:25:34.665Z,2.20
2023-02-02T19:28:27.679Z,1.88
2023-02-02T19:30:57.268Z,1.30
2023-02-02T19:33:39.516Z,1.80
2023-02-02T19:36:14.579Z,1.05
2023-02-02T19:38:41.539Z,2.20
2023-02-02T19:41:20.938Z,1.80
2023-02-02T19:43:48.932Z,1.65
2023-02-02T19:46:22.414Z,1.77
2023-02-02T19:48:51.957Z,2.20
2023-02-02T19:51:44.029Z,1.70
2023-02-02T19:54:34.664Z,1.48
2023-02-02T19:57:13.441Z,2.35
2023-02-02T19:59:42.719Z,1.90
2023-02-02T20:02:33.316Z,2.30
2023-02-02T20:05:12.923Z,1.65
2023-02-02T20:07:39.763Z,1.73
2023-02-02T20:10:23.874Z,1.60
2023-02-02T20:12:51.517Z,2.00
2023-02-02T20:15:31.868Z,1.75
2023-02-02T20:18:04.970Z,1.67
2023-02-02T20:20:43.823Z,1.45
2023-02-02T20:23:41.206Z,1.63
2023-02-02T20:26:26.463Z,1.40
2023-02-02T20:28:58.617Z,1.20
2023-02-02T20:31:38.832Z,1.27
2023-02-02T20:34:29.685Z,1.15
2023-02-02T20:37:03.919Z,1.00
2023-02-02T20:39:35.289Z,1.10
2023-02-02T20:42:04.859Z,0.90
2023-02-02T20:44:33.004Z,1.40
2023-02-02T20:47:00.550Z,1.20
2023-02-02T20:49:29.320Z,1.17
2023-02-02T20:51:57.559Z,1.08
2023-02-02T20:54:25.317Z,1.10
2023-02-02T20:56:53.003Z,1.27
2023-02-02T20:59:20.671Z,1.40
2023-02-02T21:01:50.129Z,1.67
2023-02-02T21:04:18.203Z,2.05
2023-02-02T21:06:44.974Z,1.85
2023-02-02T21:09:11.958Z,1.75
2023-02-02T21:11:38.948Z,1.75
2023-02-02T21:14:08.697Z,1.85
2023-02-02T21:16:35.898Z,1.60
2023-02-02T21:19:03.018Z,2.10
2023-02-02T21:21:31.208Z,1.80
2023-02-02T21:24:01.487Z,2.20
2023-02-02T21:26:31.031Z,1.80
2023-02-02T21:28:58.609Z,1.88
2023-02-02T21:31:28.248Z,1.90
2023-02-02T21:33:55.600Z,2.08
2023-02-02T21:36:36.194Z,2.47
2023-02-02T21:39:16.414Z,1.75
2023-02-02T21:41:46.444Z,2.50
2023-02-02T21:44:23.101Z,3.10
2023-02-02T21:46:51.635Z,2.42
2023-02-02T21:49:22.408Z,3.25
2023-02-02T21:51:49.617Z,2.72
2023-02-02T21:54:18.517Z,2.83
2023-02-02T21:56:47.512Z,2.45
2023-02-02T21:59:20.370Z,2.38
2023-02-02T22:01:48.833Z,2.58
2023-02-02T22:04:19.916Z,2.40
2023-02-02T22:06:55.146Z,2.88
2023-02-02T22:09:24.229Z,2.45
2023-02-02T22:11:52.533Z,2.83
2023-02-02T22:14:22.495Z,3.30
2023-02-02T22:16:52.196Z,3.53
2023-02-02T22:19:34.296Z,3.55
2023-02-02T22:22:18.445Z,3.88
2023-02-02T22:24:50.143Z,2.95
2023-02-02T22:27:25.507Z,3.80
2023-02-02T22:29:57.633Z,3.90
2023-02-02T22:32:24.538Z,4.50
2023-02-02T22:34:51.414Z,4.13
2023-02-02T22:37:18.448Z,3.10
2023-02-02T22:39:45.125Z,3.55
2023-02-02T22:42:11.983Z,3.05
2023-02-02T22:44:38.966Z,3.28
2023-02-02T22:47:08.280Z,3.20
2023-02-02T22:49:35.008Z,3.35
2023-02-02T22:52:01.841Z,3.08
2023-02-02T22:54:30.764Z,3.67
2023-02-02T22:57:00.570Z,3.58
2023-02-02T22:59:30.061Z,2.90
2023-02-02T23:01:56.914Z,3.05
2023-02-02T23:04:23.942Z,2.95
2023-02-02T23:06:50.864Z,3.00
2023-02-02T23:09:22.440Z,3.22
2023-02-02T23:11:49.551Z,3.10
2023-02-02T23:14:19.427Z,2.75
2023-02-02T23:16:48.267Z,2.85
2023-02-02T23:19:15.086Z,3.00
2023-02-02T23:21:41.957Z,2.92
2023-02-02T23:24:09.010Z,2.97
2023-02-02T23:26:40.687Z,2.60
2023-02-02T23:29:07.642Z,2.70
2023-02-02T23:31:34.430Z,2.40
2023-02-02T23:34:03.166Z,2.40
2023-02-02T23:36:29.976Z,2.78
2023-02-02T23:38:56.708Z,3.08
2023-02-02T23:41:23.356Z,2.85
2023-02-02T23:43:50.786Z,2.80
2023-02-02T23:46:21.771Z,3.60
2023-02-02T23:48:48.585Z,3.45
2023-02-02T23:51:18.462Z,3.55
2023-02-02T23:53:45.390Z,4.68
2023-02-02T23:56:15.217Z,4.40
2023-02-02T23:58:42.020Z,3.92
